CA-0488 weather

CLOSED Toronto Aerodrome
Toronto, Ontario, Canada

Public forecast

Using degrees Celsius for public forecast. Weather courtesy of forecast.io.

METAR (pilot weather report)

Closest report is Billy Bishop Toronto City Centre Airport, 7.8 nm (14.5 km) SSE. Retrieved 2019/05/24 01:00 UTC (2 minutes ago):

CYTZ 240100Z AUTO 32014G28KT 9SM OVC075 RMK T MISG TD MISG DENSITY ALT MISG

TAF (pilot weather forecast)

Closest forecast is Billy Bishop Toronto City Centre Airport, 7.8 nm (14.5 km) SSE. Retrieved 2019/05/23 20:47 UTC (4 hours ago):

TAF CYTZ 231938Z 2320/2420 24012G22KT P6SM -SHRA SCT030 TEMPO 2320/2321 5SM -SHRA VCTS BR BKN015 OVC030CB BECMG 2320/2321 27020G35KT FM232100 27020G35KT P6SM SCT030 BECMG 2400/2402 30012G22KT BECMG 2406/2408 30012KT FM240800 30012KT P6SM BKN015 FM241600 33010KT P6SM SCT030 RMK FCST BASED ON AUTO OBS. NXT FCST BY 240200Z